Main page
METAR-TAF:

METAR-TAF

Airports :

Charles de Gaulle Airport

Paris-Charles De Gaulle, France

latitude: 49-01N, longitude: 002-32E, elevation: 118 m

Current weather observation

The report was made 20 minutes ago, at 09:30 UTC
Wind 11 kt from the East/Northeast
Temperature 4°C
Humidity 87%
Pressure 1025 hPa
Visibility: 8000 m

METAR: LFPG 170930Z 06011KT 8000 NSC 04/02 Q1025 NOSIG

Time: 10:50 (09:50 UTC)

Forecast

The report was made 4 hours and 50 minutes ago, at 05:00 UTC
Forecast valid from 17 at 06 UTC to 18 at 12 UTC
Wind 5 kt from the East/Northeast
Visibility: 3000 m
Scattered clouds at a height of 500 ft
mist
Probability 30% :
Temporary
from 17 at 06 UTC to 17 at 08 UTC
Visibility: 0600 m
Broken clouds at a height of 100 ft
patches of fog
Becoming
from 17 at 08 UTC to 17 at 10 UTC
Visibility 10 km or more
no clouds below 1500 m and no cumulonimbus

TAF: LFPG 170500Z 1706/1812 06005KT 3000 BR SCT005 TX08/1715Z TN00/1706Z PROB30 TEMPO 1706/1708 0600 BCFG BKN001 BECMG 1708/1710 CAVOK

Weather observations and forecasts of more than 4000 airports (METAR and TAF reports).

The available stations are represented by yellow and red dots on the map.

Hover mouse over dot to see the name of the station.

Then click to see weather observations and forecasts.

To change the map : click on the green buttons with a black cross to zoom in, on the green button with a dash to zoom out, or on the green arrows for adjacent maps.


METAR-TAF: